sensor_id;sensor_type;location;lat;lon;timestamp;P1;P2;P0
72307;PMS5003;60257;42.638;23.376;2022-08-14T00:00:42;33.00;31.67;20.33
72307;PMS5003;60257;42.638;23.376;2022-08-14T00:05:43;34.33;31.33;19.00
72307;PMS5003;60257;42.638;23.376;2022-08-14T00:08:09;31.33;27.67;16.33
72307;PMS5003;60257;42.638;23.376;2022-08-14T00:10:35;26.67;24.00;17.00
72307;PMS5003;60257;42.638;23.376;2022-08-14T00:13:00;29.67;27.00;15.33
72307;PMS5003;60257;42.638;23.376;2022-08-14T00:17:56;29.33;29.33;19.67
72307;PMS5003;60257;42.638;23.376;2022-08-14T00:20:27;32.00;31.00;19.00
72307;PMS5003;60257;42.638;23.376;2022-08-14T00:22:54;32.00;30.00;19.67
72307;PMS5003;60257;42.638;23.376;2022-08-14T00:25:20;31.33;31.00;17.67
72307;PMS5003;60257;42.638;23.376;2022-08-14T00:27:46;27.00;27.00;16.33
72307;PMS5003;60257;42.638;23.376;2022-08-14T00:30:12;26.33;24.33;15.00
72307;PMS5003;60257;42.638;23.376;2022-08-14T00:32:47;26.33;26.33;16.33
72307;PMS5003;60257;42.638;23.376;2022-08-14T00:35:13;24.00;24.00;15.00
72307;PMS5003;60257;42.638;23.376;2022-08-14T00:37:39;28.67;25.00;15.00
72307;PMS5003;60257;42.638;23.376;2022-08-14T00:40:07;28.33;28.33;16.00
72307;PMS5003;60257;42.638;23.376;2022-08-14T00:42:34;28.00;27.67;16.00
72307;PMS5003;60257;42.638;23.376;2022-08-14T00:45:00;30.67;25.00;14.67
72307;PMS5003;60257;42.638;23.376;2022-08-14T00:47:25;27.00;27.00;14.00
72307;PMS5003;60257;42.638;23.376;2022-08-14T00:49:51;21.00;21.00;13.00
72307;PMS5003;60257;42.638;23.376;2022-08-14T00:52:18;26.33;25.67;14.00
72307;PMS5003;60257;42.638;23.376;2022-08-14T00:54:44;24.67;23.33;16.00
72307;PMS5003;60257;42.638;23.376;2022-08-14T00:57:14;25.67;25.67;16.67
72307;PMS5003;60257;42.638;23.376;2022-08-14T00:59:39;26.67;26.33;16.00
72307;PMS5003;60257;42.638;23.376;2022-08-14T01:02:05;19.33;19.33;15.33
72307;PMS5003;60257;42.638;23.376;2022-08-14T01:04:32;20.67;20.67;14.67
72307;PMS5003;60257;42.638;23.376;2022-08-14T01:06:58;28.33;26.33;14.00
72307;PMS5003;60257;42.638;23.376;2022-08-14T01:09:25;20.33;20.33;12.00
72307;PMS5003;60257;42.638;23.376;2022-08-14T01:11:51;27.00;25.67;16.00
72307;PMS5003;60257;42.638;23.376;2022-08-14T01:14:18;27.33;27.33;16.00
72307;PMS5003;60257;42.638;23.376;2022-08-14T01:16:47;24.00;24.00;16.33
72307;PMS5003;60257;42.638;23.376;2022-08-14T01:19:13;26.33;26.33;16.00
72307;PMS5003;60257;42.638;23.376;2022-08-14T01:21:57;27.67;27.00;17.67
72307;PMS5003;60257;42.638;23.376;2022-08-14T01:24:23;22.00;22.00;12.00
72307;PMS5003;60257;42.638;23.376;2022-08-14T01:26:49;29.00;29.00;17.67
72307;PMS5003;60257;42.638;23.376;2022-08-14T01:29:15;23.67;23.67;16.33
72307;PMS5003;60257;42.638;23.376;2022-08-14T01:31:43;29.67;29.00;19.33
72307;PMS5003;60257;42.638;23.376;2022-08-14T01:34:19;27.67;27.67;16.00
72307;PMS5003;60257;42.638;23.376;2022-08-14T01:36:47;22.00;22.00;15.00
72307;PMS5003;60257;42.638;23.376;2022-08-14T01:39:14;26.00;25.67;16.00
72307;PMS5003;60257;42.638;23.376;2022-08-14T01:41:42;23.33;22.33;13.33
72307;PMS5003;60257;42.638;23.376;2022-08-14T01:44:20;27.00;27.00;18.00
72307;PMS5003;60257;42.638;23.376;2022-08-14T01:46:52;35.00;30.00;17.00
72307;PMS5003;60257;42.638;23.376;2022-08-14T01:49:18;26.67;26.00;14.67
72307;PMS5003;60257;42.638;23.376;2022-08-14T01:51:45;29.33;28.00;17.33
72307;PMS5003;60257;42.638;23.376;2022-08-14T01:54:16;29.67;29.33;17.00
72307;PMS5003;60257;42.638;23.376;2022-08-14T01:56:49;28.67;28.67;15.00
72307;PMS5003;60257;42.638;23.376;2022-08-14T02:01:55;22.33;21.33;13.00
72307;PMS5003;60257;42.638;23.376;2022-08-14T02:04:23;27.00;25.33;16.33
72307;PMS5003;60257;42.638;23.376;2022-08-14T02:06:50;33.33;30.33;17.00
72307;PMS5003;60257;42.638;23.376;2022-08-14T02:09:16;24.67;24.00;16.00
72307;PMS5003;60257;42.638;23.376;2022-08-14T02:11:43;24.00;24.00;15.00
72307;PMS5003;60257;42.638;23.376;2022-08-14T02:14:09;28.33;28.00;18.00
72307;PMS5003;60257;42.638;23.376;2022-08-14T02:16:38;22.33;21.33;13.00
72307;PMS5003;60257;42.638;23.376;2022-08-14T02:19:16;23.00;21.67;14.33
72307;PMS5003;60257;42.638;23.376;2022-08-14T02:21:49;23.33;21.00;14.33
72307;PMS5003;60257;42.638;23.376;2022-08-14T02:24:16;20.00;20.00;15.00
72307;PMS5003;60257;42.638;23.376;2022-08-14T02:26:45;23.33;22.00;14.33
72307;PMS5003;60257;42.638;23.376;2022-08-14T02:29:16;26.67;26.67;16.00
72307;PMS5003;60257;42.638;23.376;2022-08-14T02:31:48;26.00;26.00;15.00
72307;PMS5003;60257;42.638;23.376;2022-08-14T02:34:17;25.00;23.33;15.33
72307;PMS5003;60257;42.638;23.376;2022-08-14T02:36:48;20.00;19.00;10.67
72307;PMS5003;60257;42.638;23.376;2022-08-14T02:39:16;25.67;25.67;13.33
72307;PMS5003;60257;42.638;23.376;2022-08-14T02:41:43;21.00;20.33;10.00
72307;PMS5003;60257;42.638;23.376;2022-08-14T02:44:09;24.00;24.00;14.67
72307;PMS5003;60257;42.638;23.376;2022-08-14T02:46:39;28.00;27.00;16.33
72307;PMS5003;60257;42.638;23.376;2022-08-14T02:49:09;25.67;22.00;14.33
72307;PMS5003;60257;42.638;23.376;2022-08-14T02:51:35;25.67;25.67;18.00
72307;PMS5003;60257;42.638;23.376;2022-08-14T02:54:02;27.67;27.67;16.00
72307;PMS5003;60257;42.638;23.376;2022-08-14T02:56:29;28.33;27.33;16.00
72307;PMS5003;60257;42.638;23.376;2022-08-14T02:58:55;31.67;29.33;18.00
72307;PMS5003;60257;42.638;23.376;2022-08-14T03:01:21;29.33;28.00;19.00
72307;PMS5003;60257;42.638;23.376;2022-08-14T03:03:49;33.33;31.00;19.33
72307;PMS5003;60257;42.638;23.376;2022-08-14T03:06:15;37.00;32.67;18.33
72307;PMS5003;60257;42.638;23.376;2022-08-14T03:08:44;41.00;36.00;22.00
72307;PMS5003;60257;42.638;23.376;2022-08-14T03:11:10;37.00;33.00;21.00
72307;PMS5003;60257;42.638;23.376;2022-08-14T03:13:41;36.33;34.00;21.33
72307;PMS5003;60257;42.638;23.376;2022-08-14T03:16:09;43.67;34.67;23.00
72307;PMS5003;60257;42.638;23.376;2022-08-14T03:18:39;39.00;34.33;20.00
72307;PMS5003;60257;42.638;23.376;2022-08-14T03:21:10;35.67;32.33;21.00
72307;PMS5003;60257;42.638;23.376;2022-08-14T03:23:40;31.33;30.33;17.00
72307;PMS5003;60257;42.638;23.376;2022-08-14T03:26:08;31.33;31.00;15.00
72307;PMS5003;60257;42.638;23.376;2022-08-14T03:28:36;39.67;34.33;20.00
72307;PMS5003;60257;42.638;23.376;2022-08-14T03:31:04;38.67;33.33;22.00
72307;PMS5003;60257;42.638;23.376;2022-08-14T03:33:30;37.00;34.00;19.33
72307;PMS5003;60257;42.638;23.376;2022-08-14T03:35:56;43.00;37.00;22.33
72307;PMS5003;60257;42.638;23.376;2022-08-14T03:38:23;45.33;37.67;22.67
72307;PMS5003;60257;42.638;23.376;2022-08-14T03:40:49;42.33;36.33;21.67
72307;PMS5003;60257;42.638;23.376;2022-08-14T03:43:15;39.67;35.00;22.00
72307;PMS5003;60257;42.638;23.376;2022-08-14T03:45:41;47.67;37.00;23.33
72307;PMS5003;60257;42.638;23.376;2022-08-14T03:48:13;40.00;34.33;19.33
72307;PMS5003;60257;42.638;23.376;2022-08-14T03:50:46;40.00;36.33;23.33
72307;PMS5003;60257;42.638;23.376;2022-08-14T03:53:14;50.00;40.00;24.00
72307;PMS5003;60257;42.638;23.376;2022-08-14T03:55:40;41.00;36.67;22.00
72307;PMS5003;60257;42.638;23.376;2022-08-14T03:58:06;51.67;43.00;27.00
72307;PMS5003;60257;42.638;23.376;2022-08-14T04:00:32;49.00;41.00;26.33
72307;PMS5003;60257;42.638;23.376;2022-08-14T04:03:00;49.67;41.33;26.00
72307;PMS5003;60257;42.638;23.376;2022-08-14T04:05:26;47.33;39.67;21.33
72307;PMS5003;60257;42.638;23.376;2022-08-14T04:07:52;48.67;39.00;23.33
72307;PMS5003;60257;42.638;23.376;2022-08-14T04:10:18;50.00;40.67;24.00
72307;PMS5003;60257;42.638;23.376;2022-08-14T04:12:44;48.33;41.00;23.00
72307;PMS5003;60257;42.638;23.376;2022-08-14T04:15:10;50.00;41.67;24.00
72307;PMS5003;60257;42.638;23.376;2022-08-14T04:17:36;41.33;36.00;23.00
72307;PMS5003;60257;42.638;23.376;2022-08-14T04:20:01;38.00;34.67;20.00
72307;PMS5003;60257;42.638;23.376;2022-08-14T04:22:30;35.67;33.00;20.00
72307;PMS5003;60257;42.638;23.376;2022-08-14T04:24:57;36.00;32.67;21.00
72307;PMS5003;60257;42.638;23.376;2022-08-14T04:27:23;33.00;32.00;20.00
72307;PMS5003;60257;42.638;23.376;2022-08-14T04:29:49;52.00;43.33;26.00
72307;PMS5003;60257;42.638;23.376;2022-08-14T04:32:14;47.00;39.00;24.00
72307;PMS5003;60257;42.638;23.376;2022-08-14T04:34:41;55.00;44.67;26.00
72307;PMS5003;60257;42.638;23.376;2022-08-14T04:37:07;56.67;46.00;28.00
72307;PMS5003;60257;42.638;23.376;2022-08-14T04:40:02;48.67;41.67;23.67
72307;PMS5003;60257;42.638;23.376;2022-08-14T04:42:46;48.67;41.67;23.67
72307;PMS5003;60257;42.638;23.376;2022-08-14T04:45:30;53.00;43.00;26.33
72307;PMS5003;60257;42.638;23.376;2022-08-14T04:48:14;49.33;41.00;22.67
72307;PMS5003;60257;42.638;23.376;2022-08-14T04:50:49;51.33;40.33;23.33
72307;PMS5003;60257;42.638;23.376;2022-08-14T04:53:17;47.00;39.00;24.33
72307;PMS5003;60257;42.638;23.376;2022-08-14T04:55:45;47.33;40.33;23.00
72307;PMS5003;60257;42.638;23.376;2022-08-14T04:58:13;46.67;39.00;25.00
72307;PMS5003;60257;42.638;23.376;2022-08-14T05:00:39;48.67;40.33;23.67
72307;PMS5003;60257;42.638;23.376;2022-08-14T05:03:06;46.67;38.00;24.00
72307;PMS5003;60257;42.638;23.376;2022-08-14T05:05:31;46.00;36.67;23.33
72307;PMS5003;60257;42.638;23.376;2022-08-14T05:08:07;47.00;39.33;24.33
72307;PMS5003;60257;42.638;23.376;2022-08-14T05:10:40;39.67;35.00;23.33
72307;PMS5003;60257;42.638;23.376;2022-08-14T05:13:08;48.33;40.00;26.00
72307;PMS5003;60257;42.638;23.376;2022-08-14T05:15:34;47.00;40.67;26.00
72307;PMS5003;60257;42.638;23.376;2022-08-14T05:18:02;42.00;36.33;22.67
72307;PMS5003;60257;42.638;23.376;2022-08-14T05:20:33;36.67;33.67;20.00
72307;PMS5003;60257;42.638;23.376;2022-08-14T05:22:59;33.33;31.00;19.00
72307;PMS5003;60257;42.638;23.376;2022-08-14T05:25:27;35.00;32.00;21.00
72307;PMS5003;60257;42.638;23.376;2022-08-14T05:27:53;37.00;33.00;21.33
72307;PMS5003;60257;42.638;23.376;2022-08-14T05:30:21;39.00;33.33;22.00
72307;PMS5003;60257;42.638;23.376;2022-08-14T05:32:47;37.67;32.67;20.00
72307;PMS5003;60257;42.638;23.376;2022-08-14T05:35:12;38.00;32.00;21.33
72307;PMS5003;60257;42.638;23.376;2022-08-14T05:37:38;34.67;32.67;19.67
72307;PMS5003;60257;42.638;23.376;2022-08-14T05:40:04;39.67;33.67;21.67
72307;PMS5003;60257;42.638;23.376;2022-08-14T05:42:32;42.00;35.00;21.00
72307;PMS5003;60257;42.638;23.376;2022-08-14T05:44:57;39.67;35.00;21.67
72307;PMS5003;60257;42.638;23.376;2022-08-14T05:47:23;39.00;32.67;23.00
72307;PMS5003;60257;42.638;23.376;2022-08-14T05:49:49;42.33;35.00;23.00
72307;PMS5003;60257;42.638;23.376;2022-08-14T05:52:14;42.00;35.67;23.00
72307;PMS5003;60257;42.638;23.376;2022-08-14T05:54:40;45.33;37.67;24.00
72307;PMS5003;60257;42.638;23.376;2022-08-14T05:57:06;44.33;37.00;24.00
72307;PMS5003;60257;42.638;23.376;2022-08-14T05:59:31;43.33;37.00;21.00
72307;PMS5003;60257;42.638;23.376;2022-08-14T06:01:57;46.67;38.00;23.67
72307;PMS5003;60257;42.638;23.376;2022-08-14T06:04:22;39.33;35.00;21.00
72307;PMS5003;60257;42.638;23.376;2022-08-14T06:06:48;40.33;35.67;21.67
72307;PMS5003;60257;42.638;23.376;2022-08-14T06:09:13;39.00;35.00;22.00
72307;PMS5003;60257;42.638;23.376;2022-08-14T06:11:39;39.33;34.33;22.00
72307;PMS5003;60257;42.638;23.376;2022-08-14T06:14:05;40.33;35.67;22.33
72307;PMS5003;60257;42.638;23.376;2022-08-14T06:16:30;45.67;39.00;23.00
72307;PMS5003;60257;42.638;23.376;2022-08-14T06:18:56;38.67;33.00;22.33
72307;PMS5003;60257;42.638;23.376;2022-08-14T06:21:22;42.33;36.67;23.67
72307;PMS5003;60257;42.638;23.376;2022-08-14T06:23:48;51.00;41.33;27.00
72307;PMS5003;60257;42.638;23.376;2022-08-14T06:26:13;50.33;40.00;25.67
72307;PMS5003;60257;42.638;23.376;2022-08-14T06:28:39;43.67;36.67;23.00
72307;PMS5003;60257;42.638;23.376;2022-08-14T06:31:04;45.67;38.33;22.67
72307;PMS5003;60257;42.638;23.376;2022-08-14T06:33:30;42.00;36.67;23.67
72307;PMS5003;60257;42.638;23.376;2022-08-14T06:35:55;41.00;35.00;21.67
72307;PMS5003;60257;42.638;23.376;2022-08-14T06:38:21;41.67;35.00;22.00
72307;PMS5003;60257;42.638;23.376;2022-08-14T06:40:48;44.00;37.00;22.67
72307;PMS5003;60257;42.638;23.376;2022-08-14T06:43:16;46.00;37.67;22.33
72307;PMS5003;60257;42.638;23.376;2022-08-14T06:45:44;39.33;35.33;22.33
72307;PMS5003;60257;42.638;23.376;2022-08-14T06:48:22;41.00;35.67;21.00
72307;PMS5003;60257;42.638;23.376;2022-08-14T06:50:49;45.00;38.00;24.00
72307;PMS5003;60257;42.638;23.376;2022-08-14T06:53:16;42.00;36.00;23.00
72307;PMS5003;60257;42.638;23.376;2022-08-14T06:55:44;44.67;38.00;24.00
72307;PMS5003;60257;42.638;23.376;2022-08-14T06:58:14;43.00;38.00;23.00
72307;PMS5003;60257;42.638;23.376;2022-08-14T07:00:41;42.33;36.33;23.33
72307;PMS5003;60257;42.638;23.376;2022-08-14T07:03:28;41.00;36.00;24.00
72307;PMS5003;60257;42.638;23.376;2022-08-14T07:06:13;44.33;38.00;24.00
72307;PMS5003;60257;42.638;23.376;2022-08-14T07:08:39;44.33;36.33;22.67
72307;PMS5003;60257;42.638;23.376;2022-08-14T07:11:07;44.00;38.33;23.00
72307;PMS5003;60257;42.638;23.376;2022-08-14T07:13:33;44.67;37.67;22.33
72307;PMS5003;60257;42.638;23.376;2022-08-14T07:15:59;47.33;38.00;24.00
72307;PMS5003;60257;42.638;23.376;2022-08-14T07:18:25;40.67;36.00;23.00
72307;PMS5003;60257;42.638;23.376;2022-08-14T07:20:52;51.33;43.33;27.33
72307;PMS5003;60257;42.638;23.376;2022-08-14T07:23:19;45.00;36.67;23.33
72307;PMS5003;60257;42.638;23.376;2022-08-14T07:25:45;45.33;38.67;24.33
72307;PMS5003;60257;42.638;23.376;2022-08-14T07:28:13;52.00;44.67;26.33
72307;PMS5003;60257;42.638;23.376;2022-08-14T07:30:41;45.00;38.00;23.00
72307;PMS5003;60257;42.638;23.376;2022-08-14T07:33:07;45.00;39.00;25.00
72307;PMS5003;60257;42.638;23.376;2022-08-14T07:35:34;46.00;39.67;25.67
72307;PMS5003;60257;42.638;23.376;2022-08-14T07:38:02;44.00;36.00;24.00
72307;PMS5003;60257;42.638;23.376;2022-08-14T07:40:28;47.33;41.33;25.67
72307;PMS5003;60257;42.638;23.376;2022-08-14T07:42:53;49.00;40.67;25.00
72307;PMS5003;60257;42.638;23.376;2022-08-14T07:45:19;48.00;41.67;25.33
72307;PMS5003;60257;42.638;23.376;2022-08-14T07:47:45;44.67;38.00;23.00
72307;PMS5003;60257;42.638;23.376;2022-08-14T07:52:38;40.33;35.00;22.33
72307;PMS5003;60257;42.638;23.376;2022-08-14T07:55:04;40.33;35.67;22.33
72307;PMS5003;60257;42.638;23.376;2022-08-14T07:57:30;50.67;43.33;26.00
72307;PMS5003;60257;42.638;23.376;2022-08-14T07:59:57;43.33;37.00;22.67
72307;PMS5003;60257;42.638;23.376;2022-08-14T08:02:22;45.67;40.33;25.67
72307;PMS5003;60257;42.638;23.376;2022-08-14T08:04:51;47.67;41.33;25.00
72307;PMS5003;60257;42.638;23.376;2022-08-14T08:07:20;35.33;32.00;20.33
72307;PMS5003;60257;42.638;23.376;2022-08-14T08:09:51;36.33;33.67;21.00
72307;PMS5003;60257;42.638;23.376;2022-08-14T08:12:19;43.67;40.33;23.00
72307;PMS5003;60257;42.638;23.376;2022-08-14T08:14:46;43.67;39.33;26.67
72307;PMS5003;60257;42.638;23.376;2022-08-14T08:17:15;44.67;37.67;23.67
72307;PMS5003;60257;42.638;23.376;2022-08-14T08:19:42;35.33;33.00;20.67
72307;PMS5003;60257;42.638;23.376;2022-08-14T08:22:11;38.67;35.33;21.67
72307;PMS5003;60257;42.638;23.376;2022-08-14T08:24:36;41.67;34.67;21.00
72307;PMS5003;60257;42.638;23.376;2022-08-14T08:27:12;39.67;35.33;22.33
72307;PMS5003;60257;42.638;23.376;2022-08-14T08:29:39;29.00;28.00;18.00
72307;PMS5003;60257;42.638;23.376;2022-08-14T08:32:04;38.33;35.67;20.67
72307;PMS5003;60257;42.638;23.376;2022-08-14T08:34:30;35.33;34.00;21.33
72307;PMS5003;60257;42.638;23.376;2022-08-14T08:36:56;39.00;34.67;20.00
72307;PMS5003;60257;42.638;23.376;2022-08-14T08:39:22;35.33;32.00;20.33
72307;PMS5003;60257;42.638;23.376;2022-08-14T08:41:48;36.00;34.33;22.00
72307;PMS5003;60257;42.638;23.376;2022-08-14T08:44:14;37.67;34.00;21.67
72307;PMS5003;60257;42.638;23.376;2022-08-14T08:46:42;34.00;32.00;20.33
72307;PMS5003;60257;42.638;23.376;2022-08-14T08:49:08;37.00;34.67;21.33
72307;PMS5003;60257;42.638;23.376;2022-08-14T08:51:37;27.00;25.33;15.67
72307;PMS5003;60257;42.638;23.376;2022-08-14T08:56:47;28.25;27.00;18.00
72307;PMS5003;60257;42.638;23.376;2022-08-14T09:01:54;28.00;28.00;19.25
72307;PMS5003;60257;42.638;23.376;2022-08-14T09:04:26;23.00;22.00;15.25
72307;PMS5003;60257;42.638;23.376;2022-08-14T09:06:54;20.00;20.00;12.25
72307;PMS5003;60257;42.638;23.376;2022-08-14T09:09:21;20.25;20.25;13.25
72307;PMS5003;60257;42.638;23.376;2022-08-14T09:11:48;19.50;18.50;10.25
72307;PMS5003;60257;42.638;23.376;2022-08-14T09:14:16;12.25;11.00;10.25
72307;PMS5003;60257;42.638;23.376;2022-08-14T09:16:41;16.75;16.75;11.25
72307;PMS5003;60257;42.638;23.376;2022-08-14T09:19:08;18.00;17.25;9.50
72307;PMS5003;60257;42.638;23.376;2022-08-14T09:21:34;22.25;20.50;10.75
72307;PMS5003;60257;42.638;23.376;2022-08-14T09:24:03;13.00;13.00;9.00
72307;PMS5003;60257;42.638;23.376;2022-08-14T09:26:31;16.00;13.25;10.00
72307;PMS5003;60257;42.638;23.376;2022-08-14T09:28:56;17.25;17.25;11.25
72307;PMS5003;60257;42.638;23.376;2022-08-14T09:31:22;18.00;16.25;10.75
72307;PMS5003;60257;42.638;23.376;2022-08-14T09:36:55;17.50;17.25;11.25
72307;PMS5003;60257;42.638;23.376;2022-08-14T09:40:46;19.00;19.00;12.00
72307;PMS5003;60257;42.638;23.376;2022-08-14T09:45:47;16.00;16.00;10.75
72307;PMS5003;60257;42.638;23.376;2022-08-14T09:48:14;20.00;20.00;12.00
72307;PMS5003;60257;42.638;23.376;2022-08-14T09:50:46;20.50;19.25;11.25
72307;PMS5003;60257;42.638;23.376;2022-08-14T09:53:14;20.00;20.00;12.25
72307;PMS5003;60257;42.638;23.376;2022-08-14T09:55:57;22.75;21.75;14.00
72307;PMS5003;60257;42.638;23.376;2022-08-14T09:58:23;17.75;17.75;11.00
72307;PMS5003;60257;42.638;23.376;2022-08-14T10:01:06;21.50;19.25;14.00
72307;PMS5003;60257;42.638;23.376;2022-08-14T10:03:35;18.50;17.00;10.75
72307;PMS5003;60257;42.638;23.376;2022-08-14T10:06:13;17.50;16.75;11.50
72307;PMS5003;60257;42.638;23.376;2022-08-14T10:11:15;20.75;20.00;13.75
72307;PMS5003;60257;42.638;23.376;2022-08-14T10:13:47;22.25;22.00;14.50
72307;PMS5003;60257;42.638;23.376;2022-08-14T10:16:18;18.50;17.50;12.50
72307;PMS5003;60257;42.638;23.376;2022-08-14T10:19:00;20.75;18.25;11.25
72307;PMS5003;60257;42.638;23.376;2022-08-14T10:21:37;19.50;19.50;13.00
72307;PMS5003;60257;42.638;23.376;2022-08-14T10:24:04;22.00;22.00;13.00
72307;PMS5003;60257;42.638;23.376;2022-08-14T10:26:33;21.00;21.00;13.00
72307;PMS5003;60257;42.638;23.376;2022-08-14T10:29:05;27.25;25.50;15.75
72307;PMS5003;60257;42.638;23.376;2022-08-14T10:31:34;24.00;23.00;15.00
72307;PMS5003;60257;42.638;23.376;2022-08-14T10:34:06;26.75;26.25;20.00
72307;PMS5003;60257;42.638;23.376;2022-08-14T10:36:37;22.75;22.75;15.25
72307;PMS5003;60257;42.638;23.376;2022-08-14T10:39:14;23.25;23.25;14.50
72307;PMS5003;60257;42.638;23.376;2022-08-14T10:41:42;23.00;23.00;14.50
72307;PMS5003;60257;42.638;23.376;2022-08-14T10:44:10;19.00;19.00;11.00
72307;PMS5003;60257;42.638;23.376;2022-08-14T10:46:59;22.75;21.25;12.50
72307;PMS5003;60257;42.638;23.376;2022-08-14T10:49:31;21.25;21.25;12.50
72307;PMS5003;60257;42.638;23.376;2022-08-14T10:52:08;24.00;21.50;13.25
72307;PMS5003;60257;42.638;23.376;2022-08-14T10:54:36;21.00;21.00;12.25
72307;PMS5003;60257;42.638;23.376;2022-08-14T10:57:13;22.75;21.00;12.00
72307;PMS5003;60257;42.638;23.376;2022-08-14T10:59:45;16.25;16.25;11.25
72307;PMS5003;60257;42.638;23.376;2022-08-14T11:02:19;16.50;16.50;10.00
72307;PMS5003;60257;42.638;23.376;2022-08-14T11:07:32;17.25;16.50;11.75
72307;PMS5003;60257;42.638;23.376;2022-08-14T11:10:04;13.50;12.50;7.50
72307;PMS5003;60257;42.638;23.376;2022-08-14T11:12:39;17.00;17.00;10.25
72307;PMS5003;60257;42.638;23.376;2022-08-14T11:15:05;17.25;17.25;8.25
72307;PMS5003;60257;42.638;23.376;2022-08-14T11:17:31;22.75;21.50;13.00
72307;PMS5003;60257;42.638;23.376;2022-08-14T11:20:01;16.25;16.25;10.75
72307;PMS5003;60257;42.638;23.376;2022-08-14T11:22:30;19.00;19.00;11.25
72307;PMS5003;60257;42.638;23.376;2022-08-14T11:25:02;19.25;18.75;11.25
72307;PMS5003;60257;42.638;23.376;2022-08-14T11:27:31;18.75;18.75;11.50
72307;PMS5003;60257;42.638;23.376;2022-08-14T11:30:01;21.25;21.25;13.75
72307;PMS5003;60257;42.638;23.376;2022-08-14T11:32:30;18.75;18.75;12.25
72307;PMS5003;60257;42.638;23.376;2022-08-14T11:35:04;25.00;23.50;12.75
72307;PMS5003;60257;42.638;23.376;2022-08-14T11:37:30;21.50;21.50;14.50
72307;PMS5003;60257;42.638;23.376;2022-08-14T11:40:01;21.25;20.00;14.25
72307;PMS5003;60257;42.638;23.376;2022-08-14T11:42:28;22.25;21.75;12.75
72307;PMS5003;60257;42.638;23.376;2022-08-14T11:44:58;23.50;23.00;14.75
72307;PMS5003;60257;42.638;23.376;2022-08-14T11:47:27;18.50;17.50;9.75
72307;PMS5003;60257;42.638;23.376;2022-08-14T11:49:57;22.75;22.50;13.00
72307;PMS5003;60257;42.638;23.376;2022-08-14T11:52:22;20.25;20.25;13.75
72307;PMS5003;60257;42.638;23.376;2022-08-14T11:54:58;23.25;22.25;14.00
72307;PMS5003;60257;42.638;23.376;2022-08-14T11:57:24;23.25;22.25;16.75
72307;PMS5003;60257;42.638;23.376;2022-08-14T11:59:59;20.25;20.00;13.25
72307;PMS5003;60257;42.638;23.376;2022-08-14T12:02:25;25.00;25.00;16.00
72307;PMS5003;60257;42.638;23.376;2022-08-14T12:04:51;22.50;22.00;13.00
72307;PMS5003;60257;42.638;23.376;2022-08-14T12:07:17;20.50;20.50;14.00
72307;PMS5003;60257;42.638;23.376;2022-08-14T12:09:45;22.75;21.00;13.50
72307;PMS5003;60257;42.638;23.376;2022-08-14T12:12:16;19.25;19.00;12.50
72307;PMS5003;60257;42.638;23.376;2022-08-14T12:14:55;23.00;22.00;15.75
72307;PMS5003;60257;42.638;23.376;2022-08-14T12:17:27;20.25;20.25;13.75
72307;PMS5003;60257;42.638;23.376;2022-08-14T12:25:17;22.75;22.75;15.00
72307;PMS5003;60257;42.638;23.376;2022-08-14T12:27:45;19.75;19.50;12.00
72307;PMS5003;60257;42.638;23.376;2022-08-14T12:30:59;20.00;20.00;14.25
72307;PMS5003;60257;42.638;23.376;2022-08-14T12:35:54;22.25;22.25;12.50
72307;PMS5003;60257;42.638;23.376;2022-08-14T12:41:09;24.00;23.25;14.25
72307;PMS5003;60257;42.638;23.376;2022-08-14T12:46:21;21.00;20.25;14.00
72307;PMS5003;60257;42.638;23.376;2022-08-14T12:48:55;20.00;19.75;12.25
72307;PMS5003;60257;42.638;23.376;2022-08-14T12:51:24;21.25;21.00;14.00
72307;PMS5003;60257;42.638;23.376;2022-08-14T12:53:52;17.50;17.00;12.50
72307;PMS5003;60257;42.638;23.376;2022-08-14T12:56:18;20.75;19.50;12.50
72307;PMS5003;60257;42.638;23.376;2022-08-14T12:58:49;20.75;20.75;13.25
72307;PMS5003;60257;42.638;23.376;2022-08-14T13:01:21;20.00;18.75;12.00
72307;PMS5003;60257;42.638;23.376;2022-08-14T13:04:01;22.00;22.00;13.25
72307;PMS5003;60257;42.638;23.376;2022-08-14T13:06:38;19.00;17.75;12.00
72307;PMS5003;60257;42.638;23.376;2022-08-14T13:09:06;20.50;20.50;13.00
72307;PMS5003;60257;42.638;23.376;2022-08-14T13:11:43;23.00;23.00;13.50
72307;PMS5003;60257;42.638;23.376;2022-08-14T13:14:12;20.50;20.00;11.50
72307;PMS5003;60257;42.638;23.376;2022-08-14T13:16:40;16.00;15.75;11.50
72307;PMS5003;60257;42.638;23.376;2022-08-14T13:19:11;20.75;20.75;14.00
72307;PMS5003;60257;42.638;23.376;2022-08-14T13:21:40;24.75;22.00;14.25
72307;PMS5003;60257;42.638;23.376;2022-08-14T13:24:07;23.75;23.75;15.00
72307;PMS5003;60257;42.638;23.376;2022-08-14T13:26:43;22.25;22.25;14.00
72307;PMS5003;60257;42.638;23.376;2022-08-14T13:29:21;26.25;23.75;17.50
72307;PMS5003;60257;42.638;23.376;2022-08-14T13:31:49;28.75;28.00;18.50
72307;PMS5003;60257;42.638;23.376;2022-08-14T13:34:21;29.75;27.50;18.75
72307;PMS5003;60257;42.638;23.376;2022-08-14T13:36:51;29.75;29.50;19.75
72307;PMS5003;60257;42.638;23.376;2022-08-14T13:39:19;23.75;22.25;13.50
72307;PMS5003;60257;42.638;23.376;2022-08-14T13:41:46;23.00;23.00;15.00
72307;PMS5003;60257;42.638;23.376;2022-08-14T13:44:15;18.75;18.50;11.25
72307;PMS5003;60257;42.638;23.376;2022-08-14T13:46:45;22.00;22.00;13.25
72307;PMS5003;60257;42.638;23.376;2022-08-14T13:49:11;10.25;10.25;4.75
72307;PMS5003;60257;42.638;23.376;2022-08-14T13:51:38;16.75;16.75;9.25
72307;PMS5003;60257;42.638;23.376;2022-08-14T13:54:09;14.50;14.50;10.25
72307;PMS5003;60257;42.638;23.376;2022-08-14T13:56:40;20.00;19.00;11.50
72307;PMS5003;60257;42.638;23.376;2022-08-14T13:59:07;11.50;11.50;8.00
72307;PMS5003;60257;42.638;23.376;2022-08-14T14:01:33;15.00;14.50;9.25
72307;PMS5003;60257;42.638;23.376;2022-08-14T14:04:01;12.50;12.25;7.00
72307;PMS5003;60257;42.638;23.376;2022-08-14T14:06:29;20.50;20.50;11.50
72307;PMS5003;60257;42.638;23.376;2022-08-14T14:08:57;23.00;23.00;14.50
72307;PMS5003;60257;42.638;23.376;2022-08-14T14:11:22;19.25;18.50;13.25
72307;PMS5003;60257;42.638;23.376;2022-08-14T14:13:49;26.75;26.75;18.75
72307;PMS5003;60257;42.638;23.376;2022-08-14T14:16:15;27.50;24.75;16.75
72307;PMS5003;60257;42.638;23.376;2022-08-14T14:18:45;25.75;25.25;18.00
72307;PMS5003;60257;42.638;23.376;2022-08-14T14:21:19;25.75;25.75;18.00
72307;PMS5003;60257;42.638;23.376;2022-08-14T14:23:48;26.50;26.50;17.75